Time;durP1;ratioP1;P1;durP2;ratioP2;P2;SDS_P1;SDS_P2;PMS_P1;PMS_P2;Temp;Humidity;BMP_temperature;BMP_pressure;BME280_temperature;BME280_humidity;BME280_pressure;Samples;Min_cycle;Max_cycle;Signal;HPM_P1;HPM_P2
2024/02/01 00:00:19;;;;;;;;;18.00;11.00;;;;;12.10;66.65;102590.84;5046365;28;45422;-59
2024/02/01 00:02:45;;;;;;;;;19.00;15.50;;;;;12.11;67.22;102584.69;5040972;28;45661;-59
2024/02/01 00:05:10;;;;;;;;;15.25;10.50;;;;;12.13;66.96;102582.97;5039810;28;64108;-59
2024/02/01 00:07:35;;;;;;;;;10.50;9.50;;;;;12.12;66.76;102589.06;5039043;28;46140;-60
2024/02/01 00:10:01;;;;;;;;;12.50;10.00;;;;;12.12;66.69;102574.19;5039361;28;72314;-60
2024/02/01 00:12:26;;;;;;;;;15.75;10.00;;;;;12.13;67.07;102575.09;5043529;28;60539;-59
2024/02/01 00:14:51;;;;;;;;;11.75;9.50;;;;;12.13;67.25;102562.81;5040138;28;66691;-59
2024/02/01 00:17:17;;;;;;;;;10.25;9.75;;;;;12.12;67.03;102550.56;5041029;28;46204;-60
2024/02/01 00:19:42;;;;;;;;;12.75;11.00;;;;;12.11;67.28;102551.47;5043277;28;62486;-60
2024/02/01 00:22:07;;;;;;;;;13.50;10.00;;;;;12.12;67.62;102557.56;5044280;28;45297;-60
2024/02/01 00:24:33;;;;;;;;;11.50;10.00;;;;;12.11;67.55;102542.69;5038489;28;49082;-60
2024/02/01 00:26:58;;;;;;;;;10.00;9.25;;;;;12.07;67.74;102535.72;5069546;27;75423;-59
2024/02/01 00:29:24;;;;;;;;;15.50;10.00;;;;;12.04;67.87;102534.00;5040187;28;45404;-59
2024/02/01 00:31:50;;;;;;;;;15.25;12.25;;;;;12.04;68.07;102531.38;5042750;28;45480;-59
2024/02/01 00:34:15;;;;;;;;;13.75;10.00;;;;;12.04;67.94;102531.38;5040227;28;45337;-59
2024/02/01 00:36:41;;;;;;;;;14.00;10.25;;;;;12.02;68.00;102525.25;5041889;28;72598;-59
2024/02/01 00:39:06;;;;;;;;;11.00;11.00;;;;;12.01;68.38;102528.75;5039567;28;45394;-59
2024/02/01 00:41:31;;;;;;;;;11.00;10.00;;;;;12.00;68.15;102532.25;5040266;28;69432;-59
2024/02/01 00:43:56;;;;;;;;;12.75;9.75;;;;;11.96;68.50;102510.41;5042094;28;73049;-59
2024/02/01 00:46:22;;;;;;;;;17.50;8.25;;;;;11.95;68.51;102505.16;5053153;28;47606;-59
2024/02/01 00:48:47;;;;;;;;;10.00;7.75;;;;;11.92;68.55;102500.81;5075587;27;47157;-59
2024/02/01 00:51:13;;;;;;;;;9.00;9.00;;;;;11.90;68.76;102507.81;5072316;27;45529;-59
2024/02/01 00:53:40;;;;;;;;;10.50;9.25;;;;;11.90;68.92;102501.69;5038931;28;73241;-59
2024/02/01 00:56:06;;;;;;;;;10.00;8.50;;;;;11.89;68.79;102494.66;5071573;27;46787;-59
2024/02/01 00:58:31;;;;;;;;;12.50;8.75;;;;;11.89;68.89;102490.28;5042160;28;45489;-58
2024/02/01 01:00:56;;;;;;;;;12.50;10.00;;;;;11.89;69.06;102487.66;5032002;28;67558;-59
2024/02/01 01:03:21;;;;;;;;;14.50;10.00;;;;;11.89;69.25;102482.41;5038424;28;71999;-59
2024/02/01 01:05:47;;;;;;;;;15.50;9.25;;;;;11.90;69.12;102483.31;5039133;28;75562;-59
2024/02/01 01:08:13;;;;;;;;;13.75;10.00;;;;;11.90;69.50;102478.06;5036036;28;65613;-59
2024/02/01 01:10:39;;;;;;;;;15.50;12.50;;;;;11.89;69.20;102474.53;5037381;28;45258;-60
2024/02/01 01:13:04;;;;;;;;;10.50;8.75;;;;;11.90;69.59;102488.56;5042018;28;45700;-59
2024/02/01 01:15:29;;;;;;;;;9.00;9.00;;;;;11.91;69.51;102496.44;5046386;28;65737;-59
2024/02/01 01:17:55;;;;;;;;;10.00;9.75;;;;;11.94;69.68;102487.69;5069935;27;69237;-59
2024/02/01 01:20:20;;;;;;;;;13.00;9.00;;;;;11.95;69.87;102481.53;5032678;28;45489;-64
2024/02/01 01:22:45;;;;;;;;;10.75;9.25;;;;;11.97;70.06;102485.06;5035468;28;45603;-61
2024/02/01 01:25:11;;;;;;;;;17.00;12.25;;;;;11.99;69.93;102475.41;5031592;28;75381;-60
2024/02/01 01:27:36;;;;;;;;;12.75;10.00;;;;;12.03;69.79;102471.88;5035797;28;48791;-60
2024/02/01 01:30:02;;;;;;;;;11.50;10.50;;;;;12.05;69.53;102485.88;5032480;28;47076;-60
2024/02/01 01:32:27;;;;;;;;;11.00;10.00;;;;;12.04;69.93;102484.16;5065407;28;45469;-60
2024/02/01 01:34:52;;;;;;;;;13.25;8.75;;;;;12.04;69.74;102467.50;5036096;28;46764;-60
2024/02/01 01:37:17;;;;;;;;;11.25;10.25;;;;;12.04;70.18;102462.25;5034604;28;68942;-61
2024/02/01 01:39:43;;;;;;;;;18.50;11.25;;;;;12.05;70.30;102458.75;5064759;27;66369;-60
2024/02/01 01:42:08;;;;;;;;;13.25;10.25;;;;;12.05;70.28;102472.75;5033172;28;69606;-60
2024/02/01 01:44:33;;;;;;;;;11.00;10.00;;;;;12.08;70.51;102470.13;5032313;28;76353;-60
2024/02/01 01:46:59;;;;;;;;;15.25;11.75;;;;;12.09;70.25;102465.72;5032011;28;72192;-59
2024/02/01 01:49:24;;;;;;;;;12.50;8.75;;;;;12.09;70.54;102466.63;5032698;28;63627;-60
2024/02/01 01:51:54;;;;;;;;;12.00;11.00;;;;;12.10;70.68;102470.13;5032074;28;58155;-60
2024/02/01 01:54:22;;;;;;;;;12.25;10.50;;;;;12.11;70.42;102462.25;5017896;28;46058;-61
2024/02/01 01:56:48;;;;;;;;;9.25;9.00;;;;;12.11;70.40;102462.25;5065508;27;46044;-60
2024/02/01 01:59:16;;;;;;;;;16.00;9.50;;;;;12.12;70.32;102449.97;5028848;28;45500;-59
2024/02/01 02:01:45;;;;;;;;;10.75;10.75;;;;;12.10;70.65;102443.88;5034084;28;45401;-59
2024/02/01 02:04:10;;;;;;;;;13.25;10.00;;;;;12.14;70.98;102443.81;5034689;28;45675;-60
2024/02/01 02:06:36;;;;;;;;;13.00;11.75;;;;;12.15;70.86;102440.34;5069314;27;73455;-60
2024/02/01 02:09:02;;;;;;;;;16.25;13.50;;;;;12.17;70.96;102432.44;5038923;28;69678;-61
2024/02/01 02:11:27;;;;;;;;;11.00;10.00;;;;;12.16;70.62;102430.69;5037775;28;45458;-59
2024/02/01 02:13:53;;;;;;;;;15.00;9.25;;;;;12.13;70.75;102426.34;5043382;28;45310;-58
2024/02/01 02:16:18;;;;;;;;;17.00;12.00;;;;;12.13;70.77;102433.38;5034791;28;74270;-60
2024/02/01 02:18:44;;;;;;;;;13.50;10.25;;;;;12.11;71.09;102425.50;5020714;28;45551;-59
2024/02/01 02:21:18;;;;;;;;;9.75;9.50;;;;;12.12;70.64;102439.47;5035549;28;45627;-59
2024/02/01 02:23:49;;;;;;;;;15.00;10.25;;;;;12.13;70.81;102443.88;5037134;28;45407;-59
2024/02/01 02:26:15;;;;;;;;;11.25;10.00;;;;;12.12;71.23;102444.72;5034985;28;45951;-58
2024/02/01 02:28:40;;;;;;;;;18.00;12.00;;;;;12.13;70.72;102438.63;5038364;28;45443;-59
2024/02/01 02:31:05;;;;;;;;;14.75;11.50;;;;;12.16;70.93;102449.06;5047454;28;52127;-60
2024/02/01 02:33:31;;;;;;;;;12.50;11.00;;;;;12.17;71.10;102445.56;5050842;28;73422;-60
2024/02/01 02:35:56;;;;;;;;;12.50;10.25;;;;;12.19;70.72;102448.19;5036109;28;45537;-60
2024/02/01 02:38:23;;;;;;;;;12.00;9.00;;;;;12.20;71.12;102439.41;5036000;28;69245;-60
2024/02/01 02:40:48;;;;;;;;;13.00;11.00;;;;;12.21;70.92;102436.78;5034952;28;45353;-60
2024/02/01 02:43:13;;;;;;;;;14.75;9.00;;;;;12.25;71.01;102450.75;5038044;28;45402;-60
2024/02/01 02:45:39;;;;;;;;;12.75;10.75;;;;;12.25;70.94;102449.03;5031841;28;71150;-60
2024/02/01 02:48:06;;;;;;;;;11.75;10.00;;;;;12.26;70.69;102455.16;5067039;27;60811;-60
2024/02/01 02:50:31;;;;;;;;;10.00;9.00;;;;;12.27;71.12;102454.25;5052707;28;45468;-60
2024/02/01 02:52:56;;;;;;;;;14.25;10.00;;;;;12.30;70.83;102459.47;5038898;28;45681;-60
2024/02/01 02:55:22;;;;;;;;;17.75;11.25;;;;;12.28;70.70;102464.75;5047788;28;72969;-60
2024/02/01 02:57:47;;;;;;;;;14.25;10.75;;;;;12.28;71.03;102454.25;5049939;28;66866;-60
2024/02/01 03:00:18;;;;;;;;;12.75;10.75;;;;;12.29;71.20;102456.00;5041529;28;45356;-60
2024/02/01 03:02:50;;;;;;;;;11.00;10.00;;;;;12.30;71.13;102455.09;5046835;28;45417;-60
2024/02/01 03:05:16;;;;;;;;;10.75;10.50;;;;;12.28;70.92;102450.75;5052907;28;45498;-60
2024/02/01 03:07:42;;;;;;;;;12.00;10.50;;;;;12.29;71.33;102440.25;5046379;28;45280;-60
2024/02/01 03:10:08;;;;;;;;;12.50;12.00;;;;;12.28;70.87;102449.00;5047163;28;45294;-60
2024/02/01 03:12:33;;;;;;;;;12.00;9.00;;;;;12.28;71.10;102437.63;5037869;27;47191;-60
2024/02/01 03:14:58;;;;;;;;;16.00;10.25;;;;;12.28;71.31;102435.88;5046102;28;71205;-59
2024/02/01 03:17:24;;;;;;;;;12.00;10.00;;;;;12.28;71.07;102427.13;5043876;28;68310;-59
2024/02/01 03:19:53;;;;;;;;;13.00;11.25;;;;;12.26;71.60;102437.63;5051429;28;47145;-59
2024/02/01 03:22:24;;;;;;;;;12.75;8.25;;;;;12.27;71.74;102428.91;5045364;28;48121;-60
2024/02/01 03:24:58;;;;;;;;;11.00;9.75;;;;;12.29;71.21;102436.75;5049117;28;45316;-59
2024/02/01 03:27:28;;;;;;;;;12.75;8.50;;;;;12.31;71.49;102451.59;5079373;27;45465;-60
2024/02/01 03:29:54;;;;;;;;;12.25;10.00;;;;;12.29;71.10;102447.25;5039266;28;45454;-59
2024/02/01 03:32:19;;;;;;;;;12.50;10.50;;;;;12.34;71.19;102456.84;5042848;28;75371;-59
2024/02/01 03:34:44;;;;;;;;;7.75;7.25;;;;;12.35;71.77;102452.44;5056331;28;73126;-59
2024/02/01 03:37:14;;;;;;;;;11.25;9.00;;;;;12.37;71.36;102448.06;5047300;28;69067;-59
2024/02/01 03:39:43;;;;;;;;;10.25;10.00;;;;;12.37;71.53;102445.44;5039614;28;45309;-59
2024/02/01 03:42:08;;;;;;;;;12.50;8.75;;;;;12.37;71.53;102436.69;5039831;28;46071;-59
2024/02/01 03:44:39;;;;;;;;;11.00;10.00;;;;;12.37;71.67;102440.19;5040537;28;45725;-59
2024/02/01 03:47:09;;;;;;;;;14.50;8.75;;;;;12.35;72.13;102440.19;5054576;28;45533;-59
2024/02/01 03:49:37;;;;;;;;;9.50;8.00;;;;;12.35;72.76;102441.94;5051015;28;45391;-60
2024/02/01 03:52:03;;;;;;;;;14.00;9.00;;;;;12.33;73.03;102447.22;5082312;27;46252;-59
2024/02/01 03:54:31;;;;;;;;;12.50;9.00;;;;;12.34;72.69;102455.94;5040557;28;45341;-59
2024/02/01 03:56:56;;;;;;;;;11.25;9.25;;;;;12.35;73.01;102455.94;5039555;28;45407;-59
2024/02/01 03:59:22;;;;;;;;;10.25;8.75;;;;;12.34;72.91;102448.97;5040883;28;45573;-60
2024/02/01 04:01:47;;;;;;;;;9.50;8.00;;;;;12.35;73.08;102442.81;5039833;28;75008;-60
2024/02/01 04:04:17;;;;;;;;;11.50;9.25;;;;;12.35;73.18;102434.94;5055319;28;68764;-60
2024/02/01 04:06:44;;;;;;;;;10.00;8.75;;;;;12.36;73.42;102443.72;5040991;28;45912;-60
2024/02/01 04:09:09;;;;;;;;;10.75;8.75;;;;;12.38;73.34;102441.94;5044967;28;45187;-60
2024/02/01 04:11:35;;;;;;;;;12.00;8.25;;;;;12.39;73.57;102446.28;5049117;28;45384;-59
2024/02/01 04:14:00;;;;;;;;;9.50;9.00;;;;;12.40;73.47;102437.53;5057595;28;45346;-59
2024/02/01 04:16:27;;;;;;;;;9.50;8.00;;;;;12.41;73.57;102443.66;5047676;28;45928;-59
2024/02/01 04:18:52;;;;;;;;;10.50;10.00;;;;;12.41;73.24;102451.53;5040682;28;45560;-59
2024/02/01 04:21:18;;;;;;;;;9.00;8.50;;;;;12.41;73.56;102449.81;5043294;28;46934;-59
2024/02/01 04:23:43;;;;;;;;;8.00;7.50;;;;;12.43;73.44;102448.03;5053371;28;69689;-59
2024/02/01 04:26:14;;;;;;;;;10.25;7.25;;;;;12.44;73.25;102448.91;5042067;28;45391;-60
2024/02/01 04:28:40;;;;;;;;;14.50;7.50;;;;;12.43;73.10;102450.66;5045055;28;45282;-60
2024/02/01 04:31:05;;;;;;;;;14.00;7.50;;;;;12.40;73.71;102453.31;5039628;28;45312;-59
2024/02/01 04:33:30;;;;;;;;;10.25;8.00;;;;;12.37;73.43;102453.31;5039557;28;72880;-59
2024/02/01 04:35:56;;;;;;;;;7.50;7.50;;;;;12.37;73.50;102455.94;5041092;28;69420;-60
2024/02/01 04:38:21;;;;;;;;;9.50;9.50;;;;;12.37;73.69;102457.69;5038574;28;71820;-59
2024/02/01 04:40:47;;;;;;;;;11.75;8.75;;;;;12.34;74.42;102462.09;5040206;28;47006;-59
2024/02/01 04:43:13;;;;;;;;;13.50;9.00;;;;;12.35;74.57;102463.81;5039575;28;45387;-60
2024/02/01 04:45:38;;;;;;;;;7.25;7.25;;;;;12.34;74.94;102455.94;5040268;28;45465;-60
2024/02/01 04:48:10;;;;;;;;;11.00;9.00;;;;;12.34;74.80;102462.09;5040163;28;45427;-60
2024/02/01 04:50:38;;;;;;;;;10.75;8.00;;;;;12.33;75.54;102456.84;5037774;28;46355;-61
2024/02/01 04:53:05;;;;;;;;;8.00;6.50;;;;;12.31;75.93;102462.09;5041413;28;45851;-60
2024/02/01 04:55:30;;;;;;;;;8.50;7.00;;;;;12.27;76.40;102457.75;5040860;28;45426;-60
2024/02/01 04:57:55;;;;;;;;;9.25;7.75;;;;;12.24;76.47;102452.53;5042457;28;46772;-60
2024/02/01 05:00:21;;;;;;;;;9.25;7.50;;;;;12.20;76.64;102445.56;5039659;28;46174;-60
2024/02/01 05:02:47;;;;;;;;;8.00;6.75;;;;;12.13;77.53;102444.72;5076937;27;45304;-59
2024/02/01 05:05:15;;;;;;;;;10.50;8.25;;;;;12.08;78.29;102448.25;5040550;28;45451;-59
2024/02/01 05:07:40;;;;;;;;;13.00;9.00;;;;;12.01;79.46;102455.28;5039329;28;45406;-60
2024/02/01 05:10:12;;;;;;;;;9.25;8.75;;;;;11.96;79.23;102451.81;5039846;28;45254;-60
2024/02/01 05:12:40;;;;;;;;;8.00;7.25;;;;;11.94;79.24;102459.69;5040579;28;45507;-60
2024/02/01 05:15:07;;;;;;;;;8.25;7.75;;;;;11.91;79.60;102461.47;5039808;28;45378;-60
2024/02/01 05:17:33;;;;;;;;;11.00;9.25;;;;;11.87;79.61;102463.19;5038248;28;45661;-60
2024/02/01 05:19:59;;;;;;;;;11.75;9.50;;;;;11.86;80.05;102458.81;5036089;28;48640;-60
2024/02/01 05:22:28;;;;;;;;;11.50;9.00;;;;;11.86;80.06;102461.44;5038507;28;64018;-60
2024/02/01 05:24:54;;;;;;;;;10.00;9.00;;;;;11.86;80.34;102460.56;5038869;28;45445;-60
2024/02/01 05:27:20;;;;;;;;;10.00;10.00;;;;;11.86;80.37;102465.81;5038972;28;45779;-60
2024/02/01 05:29:49;;;;;;;;;10.25;9.00;;;;;11.85;80.74;102466.72;5040018;28;47150;-60
2024/02/01 05:32:15;;;;;;;;;12.00;9.00;;;;;11.86;80.87;102452.69;5039192;28;45343;-60
2024/02/01 05:34:41;;;;;;;;;11.25;9.50;;;;;11.86;80.87;102444.84;5039737;28;45280;-60
2024/02/01 05:37:06;;;;;;;;;9.00;7.50;;;;;11.85;80.96;102453.59;5038884;28;68369;-60
2024/02/01 05:39:32;;;;;;;;;11.75;8.75;;;;;11.85;80.83;102453.59;5038841;28;45655;-61
2024/02/01 05:41:59;;;;;;;;;13.50;9.25;;;;;11.85;80.88;102456.22;5038110;28;72139;-60
2024/02/01 05:44:26;;;;;;;;;11.50;7.50;;;;;11.83;81.45;102464.09;5039571;28;45228;-60
2024/02/01 05:46:53;;;;;;;;;9.00;9.00;;;;;11.83;81.25;102474.59;5039473;28;45340;-60
2024/02/01 05:49:20;;;;;;;;;9.50;9.00;;;;;11.85;81.45;102469.34;5039280;28;47098;-60
2024/02/01 05:51:47;;;;;;;;;15.25;11.00;;;;;11.87;81.73;102462.31;5035717;28;45327;-60
2024/02/01 05:54:13;;;;;;;;;9.75;8.25;;;;;11.88;81.53;102457.06;5033443;28;45527;-60
2024/02/01 05:56:38;;;;;;;;;15.75;11.00;;;;;11.89;81.21;102471.06;5045261;28;45445;-60
2024/02/01 05:59:04;;;;;;;;;13.00;10.00;;;;;11.86;81.66;102461.44;5038330;28;74520;-60
2024/02/01 06:01:31;;;;;;;;;12.50;9.50;;;;;11.86;81.77;102464.06;5037636;28;45224;-60
2024/02/01 06:03:56;;;;;;;;;15.75;10.00;;;;;11.83;81.73;102464.09;5039570;28;45395;-60
2024/02/01 06:06:21;;;;;;;;;13.50;10.00;;;;;11.84;81.66;102464.97;5038006;28;71961;-60
2024/02/01 06:08:47;;;;;;;;;13.25;8.75;;;;;11.83;81.99;102463.19;5039002;28;46943;-60
2024/02/01 06:11:12;;;;;;;;;15.00;11.00;;;;;11.82;81.70;102475.44;5038629;28;55960;-60
2024/02/01 06:13:38;;;;;;;;;12.25;8.50;;;;;11.81;81.78;102478.06;5041854;28;46436;-60
2024/02/01 06:16:04;;;;;;;;;14.75;10.00;;;;;11.80;81.91;102479.84;5038712;28;45424;-60
2024/02/01 06:18:29;;;;;;;;;10.25;10.00;;;;;11.79;82.64;102485.94;5038636;28;46524;-60
2024/02/01 06:20:54;;;;;;;;;8.75;7.75;;;;;11.82;82.21;102478.06;5040629;28;45296;-60
2024/02/01 06:23:20;;;;;;;;;9.75;8.00;;;;;11.82;82.15;102477.22;5053129;28;69447;-60
2024/02/01 06:25:45;;;;;;;;;10.50;8.50;;;;;11.83;82.69;102481.56;5039767;28;70299;-60
2024/02/01 06:28:12;;;;;;;;;11.75;10.25;;;;;11.85;82.48;102483.31;5038085;28;74629;-61
2024/02/01 06:30:37;;;;;;;;;9.50;8.25;;;;;11.86;82.57;102484.19;5035524;28;45754;-59
2024/02/01 06:33:03;;;;;;;;;11.75;10.00;;;;;11.87;82.60;102486.78;5036639;28;69281;-59
2024/02/01 06:35:28;;;;;;;;;14.25;10.00;;;;;11.86;82.42;102497.28;5037769;28;45488;-60
2024/02/01 06:38:04;;;;;;;;;13.50;10.00;;;;;11.88;82.48;102500.78;5037949;28;46466;-59
2024/02/01 06:41:06;;;;;;;;;13.00;12.00;;;;;11.88;82.26;102511.28;5032564;28;46291;-61
2024/02/01 06:43:41;;;;;;;;;15.25;10.50;;;;;11.86;82.52;102511.28;5041816;28;45343;-58
2024/02/01 06:46:22;;;;;;;;;12.00;10.50;;;;;11.88;82.91;102508.66;5054432;28;45826;-59
2024/02/01 06:49:01;;;;;;;;;15.50;11.25;;;;;11.86;82.79;102511.28;5042220;28;46324;-59
2024/02/01 06:51:32;;;;;;;;;11.25;9.25;;;;;11.87;83.37;102507.78;5046847;28;45909;-58
2024/02/01 06:54:05;;;;;;;;;13.00;11.00;;;;;11.89;83.26;102515.66;5042730;28;45412;-59
2024/02/01 06:56:51;;;;;;;;;15.25;13.00;;;;;11.89;83.23;102513.91;5042888;28;45233;-59
2024/02/01 06:59:33;;;;;;;;;39.50;20.00;;;;;11.88;83.29;102512.16;5047983;28;45492;-59
2024/02/01 07:02:24;;;;;;;;;0.00;0.00;;;;;11.89;83.80;102520.91;5044764;28;46741;-59
2024/02/01 07:04:51;;;;;;;;;71.00;51.00;;;;;11.88;84.24;102527.00;5050616;28;45643;-59
2024/02/01 07:08:02;;;;;;;;;15.75;12.25;;;;;11.88;83.49;102535.78;5048991;28;45451;-60
2024/02/01 07:10:16;;;;;;;;;18.00;10.75;;;;;11.86;84.53;102539.28;5039231;28;45588;-63
2024/02/01 07:12:42;;;;;;;;;16.50;11.00;;;;;11.85;84.47;102538.41;5050988;28;45434;-60
2024/02/01 07:18:03;;;;;;;;;11.25;9.25;;;;;11.87;84.52;102546.28;5039900;28;45470;-61
2024/02/01 07:25:48;;;;;;;;;14.00;11.25;;;;;11.81;85.08;102544.56;5049188;28;45437;-72
2024/02/01 07:58:21;;;;;;;;;20.75;15.50;;;;;12.08;86.95;102589.97;5044938;28;45536;-62
2024/02/01 08:00:53;;;;;;;;;14.25;10.75;;;;;12.08;85.49;102590.84;5039924;28;45938;-60
2024/02/01 08:03:31;;;;;;;;;15.75;11.50;;;;;12.09;86.01;102594.31;5037300;28;45326;-62
2024/02/01 08:08:41;;;;;;;;;11.00;8.25;;;;;12.11;86.43;102593.47;5040412;28;45429;-63
2024/02/01 08:11:07;;;;;;;;;13.25;10.25;;;;;12.13;86.43;102596.06;5052165;28;45482;-62
2024/02/01 08:13:32;;;;;;;;;16.75;11.00;;;;;12.13;86.17;102596.06;5083980;27;67001;-63
2024/02/01 08:16:02;;;;;;;;;10.75;10.25;;;;;12.15;86.05;102589.06;5054823;28;45571;-63
2024/02/01 08:18:34;;;;;;;;;11.00;10.25;;;;;12.19;86.29;102603.06;5057345;28;45363;-63
2024/02/01 08:21:00;;;;;;;;;13.00;11.50;;;;;12.21;85.58;102603.91;5057798;28;45451;-65
2024/02/01 08:23:26;;;;;;;;;14.50;12.00;;;;;12.22;86.04;102605.69;5054843;28;47693;-63
2024/02/01 08:25:51;;;;;;;;;12.75;8.25;;;;;12.23;86.21;102597.75;5045085;28;71956;-63
2024/02/01 08:28:17;;;;;;;;;14.50;9.75;;;;;12.24;85.77;102604.78;5039773;28;54323;-63
2024/02/01 08:30:45;;;;;;;;;15.00;11.00;;;;;12.27;85.78;102609.13;5036979;28;45584;-63
2024/02/01 08:33:18;;;;;;;;;9.00;8.00;;;;;12.28;85.92;102609.13;5042690;28;46170;-64
2024/02/01 08:35:45;;;;;;;;;11.00;10.00;;;;;12.31;85.89;102608.25;5044788;28;45838;-63
2024/02/01 08:38:11;;;;;;;;;13.00;8.00;;;;;12.35;85.44;102612.59;5046534;28;45523;-63
2024/02/01 08:40:40;;;;;;;;;9.00;8.00;;;;;12.35;85.71;102609.97;5042527;28;45334;-63
2024/02/01 08:43:06;;;;;;;;;7.25;6.50;;;;;12.38;85.81;102611.72;5045263;28;46583;-64
2024/02/01 08:45:37;;;;;;;;;15.00;9.00;;;;;12.40;85.58;102613.47;5039692;28;45309;-63
2024/02/01 08:48:04;;;;;;;;;11.50;7.00;;;;;12.43;85.71;102616.09;5053301;28;45285;-63
2024/02/01 08:50:44;;;;;;;;;10.00;8.25;;;;;12.45;85.66;102616.94;5043257;28;45489;-64
2024/02/01 08:53:11;;;;;;;;;8.00;6.00;;;;;12.47;85.46;102625.69;5048122;28;47222;-63
2024/02/01 08:55:37;;;;;;;;;12.00;7.25;;;;;12.51;85.74;102640.53;5049790;28;45769;-63
2024/02/01 08:58:08;;;;;;;;;6.00;6.00;;;;;12.51;85.20;102630.03;5047596;28;45269;-63
2024/02/01 09:00:34;;;;;;;;;17.50;13.75;;;;;12.53;84.74;102637.91;5050371;28;46102;-63
2024/02/01 09:03:04;;;;;;;;;10.75;8.75;;;;;12.56;85.43;102637.03;5049905;28;45582;-63
2024/02/01 09:05:34;;;;;;;;;7.00;7.00;;;;;12.61;85.01;102644.00;5044296;28;45364;-63
2024/02/01 09:08:03;;;;;;;;;8.50;7.50;;;;;12.67;85.35;102648.34;5051029;28;45373;-63
2024/02/01 09:10:29;;;;;;;;;7.00;6.00;;;;;12.73;84.87;102645.72;5040012;28;45585;-63
2024/02/01 09:12:55;;;;;;;;;9.25;5.25;;;;;12.72;84.57;102633.44;5071382;28;46043;-63
2024/02/01 09:15:20;;;;;;;;;8.25;5.00;;;;;12.72;84.88;102630.81;5049145;28;45287;-63
2024/02/01 09:17:46;;;;;;;;;6.75;6.00;;;;;12.75;85.02;102640.41;5039041;28;62924;-62
2024/02/01 09:20:18;;;;;;;;;6.00;6.00;;;;;12.77;84.54;102641.31;5048541;28;45324;-63
2024/02/01 09:22:52;;;;;;;;;5.75;4.50;;;;;12.80;84.85;102643.91;5041081;28;46122;-63
2024/02/01 09:25:19;;;;;;;;;7.50;5.00;;;;;12.83;84.46;102647.38;5044332;28;45849;-63
2024/02/01 09:27:45;;;;;;;;;8.50;7.00;;;;;12.87;84.60;102649.13;5039684;28;45503;-63
2024/02/01 09:30:16;;;;;;;;;9.00;5.00;;;;;12.94;84.28;102646.44;5072107;28;45253;-63
2024/02/01 09:32:42;;;;;;;;;7.00;6.75;;;;;12.95;84.09;102651.69;5037779;28;45723;-63
2024/02/01 09:35:09;;;;;;;;;6.75;5.00;;;;;12.90;84.18;102651.72;5041416;28;45311;-63
2024/02/01 09:37:35;;;;;;;;;7.00;5.75;;;;;12.93;83.62;102663.13;5039647;28;45286;-63
2024/02/01 09:40:00;;;;;;;;;10.25;7.50;;;;;12.95;84.48;102662.22;5038449;28;45617;-63
2024/02/01 09:42:26;;;;;;;;;9.25;7.00;;;;;12.99;84.16;102666.56;5038113;28;75492;-62
2024/02/01 09:44:56;;;;;;;;;10.25;8.50;;;;;13.06;83.95;102664.78;5054901;28;45293;-63
2024/02/01 09:47:23;;;;;;;;;8.25;7.75;;;;;13.14;83.65;102662.09;5051160;28;45466;-63
2024/02/01 09:49:49;;;;;;;;;9.00;7.00;;;;;13.19;83.50;102657.66;5039515;28;45239;-62
2024/02/01 09:52:14;;;;;;;;;10.50;7.75;;;;;13.22;83.53;102666.41;5054576;28;69423;-63
2024/02/01 09:54:39;;;;;;;;;14.00;8.50;;;;;13.22;83.21;102671.66;5044186;28;72199;-62
2024/02/01 09:57:14;;;;;;;;;10.50;7.00;;;;;13.24;83.48;102669.91;5038359;28;67037;-63
2024/02/01 09:59:40;;;;;;;;;9.00;7.00;;;;;13.28;83.66;102674.25;5039223;28;45591;-63
2024/02/01 10:02:12;;;;;;;;;9.50;7.75;;;;;13.32;83.25;102676.91;5028116;28;46462;-63
2024/02/01 10:04:38;;;;;;;;;11.00;7.50;;;;;13.34;83.45;102673.38;5039259;28;45743;-63
2024/02/01 10:07:03;;;;;;;;;10.00;7.25;;;;;13.36;83.10;102678.63;5040241;27;46262;-63
2024/02/01 10:09:29;;;;;;;;;10.25;8.50;;;;;13.35;82.89;102683.03;5041172;28;45413;-63
2024/02/01 10:11:54;;;;;;;;;13.00;10.75;;;;;13.33;82.58;102682.13;5039128;28;45271;-63
2024/02/01 10:14:23;;;;;;;;;7.25;6.50;;;;;13.29;82.98;102675.13;5039150;28;45287;-64
2024/02/01 10:16:48;;;;;;;;;7.50;6.75;;;;;13.34;83.38;102676.00;5038101;28;45396;-63
2024/02/01 10:19:14;;;;;;;;;9.25;7.25;;;;;13.40;82.91;102681.22;5039015;28;45477;-63
2024/02/01 10:21:40;;;;;;;;;8.50;6.00;;;;;13.45;82.94;102684.69;5045157;28;47066;-64
2024/02/01 10:24:06;;;;;;;;;8.00;7.00;;;;;13.51;82.66;102688.16;5041003;28;70336;-64
2024/02/01 10:26:32;;;;;;;;;9.25;6.75;;;;;13.58;82.57;102697.72;5047334;28;45409;-64
2024/02/01 10:28:58;;;;;;;;;10.25;7.00;;;;;13.63;82.57;102691.56;5060607;28;45507;-64
2024/02/01 10:31:23;;;;;;;;;11.50;8.00;;;;;13.65;82.39;102695.06;5042321;28;45383;-64
2024/02/01 10:33:49;;;;;;;;;13.75;9.00;;;;;13.69;82.13;102690.66;5042008;28;45426;-62
2024/02/01 10:36:21;;;;;;;;;14.25;9.50;;;;;13.72;82.30;102690.59;5042844;28;45384;-63
2024/02/01 10:38:50;;;;;;;;;11.00;7.50;;;;;13.76;81.81;102696.72;5042241;28;45421;-63
2024/02/01 10:41:26;;;;;;;;;12.75;8.25;;;;;13.76;81.92;102697.59;5040962;28;45515;-63
2024/02/01 10:43:51;;;;;;;;;11.00;8.75;;;;;13.74;81.36;102694.13;5041505;28;45701;-63
2024/02/01 10:46:27;;;;;;;;;12.75;9.00;;;;;13.70;81.61;102704.66;5040451;28;61076;-63
2024/02/01 10:48:59;;;;;;;;;9.75;9.00;;;;;13.70;81.53;102707.28;5044230;28;45492;-63
2024/02/01 10:51:24;;;;;;;;;13.00;9.00;;;;;13.69;81.51;102703.81;5041673;28;46713;-63
2024/02/01 10:53:50;;;;;;;;;11.00;9.00;;;;;13.68;81.62;102707.31;5041728;28;45581;-63
2024/02/01 10:56:17;;;;;;;;;11.75;9.00;;;;;13.65;81.57;102707.31;5041007;28;60537;-63
2024/02/01 10:58:49;;;;;;;;;8.00;8.00;;;;;13.62;81.66;102702.97;5040579;28;45415;-62
2024/02/01 11:01:18;;;;;;;;;9.75;7.50;;;;;13.62;81.82;102702.09;5050941;28;46298;-62
2024/02/01 11:03:51;;;;;;;;;12.75;10.25;;;;;13.63;81.80;102699.47;5030881;28;45412;-63
2024/02/01 11:06:18;;;;;;;;;8.50;6.00;;;;;13.61;81.38;102692.47;5041723;28;45481;-63
2024/02/01 11:08:50;;;;;;;;;11.50;10.50;;;;;13.56;81.57;102688.97;5041960;28;45330;-64
2024/02/01 11:11:16;;;;;;;;;8.25;7.50;;;;;13.50;81.46;102679.38;5040085;28;45727;-63
2024/02/01 11:13:45;;;;;;;;;9.00;8.25;;;;;13.52;81.60;102682.00;5041601;28;45484;-63
2024/02/01 11:16:10;;;;;;;;;12.75;10.50;;;;;13.56;82.15;102683.72;5072891;28;45413;-64
2024/02/01 11:18:36;;;;;;;;;12.00;10.75;;;;;13.60;81.97;102688.09;5058622;28;70065;-63
2024/02/01 11:21:05;;;;;;;;;11.25;11.00;;;;;13.67;81.84;102695.91;5040081;28;45495;-63
2024/02/01 11:23:38;;;;;;;;;12.00;9.25;;;;;13.68;81.54;102692.38;5041489;28;45221;-63
2024/02/01 11:26:07;;;;;;;;;13.50;11.75;;;;;13.70;81.18;102680.97;5041059;28;45370;-63
2024/02/01 11:28:35;;;;;;;;;11.00;9.25;;;;;13.73;81.49;102687.09;5041220;28;45451;-63
2024/02/01 11:31:03;;;;;;;;;8.00;7.50;;;;;13.73;80.78;102692.34;5023230;28;46101;-63
2024/02/01 11:33:31;;;;;;;;;10.75;8.50;;;;;13.71;80.89;102688.88;5041445;28;45363;-62
2024/02/01 11:35:57;;;;;;;;;10.25;8.50;;;;;13.64;80.92;102693.31;5039172;28;45287;-63
2024/02/01 11:38:25;;;;;;;;;16.25;11.75;;;;;13.59;80.82;102691.59;5039880;28;45664;-63
2024/02/01 11:40:50;;;;;;;;;15.25;11.75;;;;;13.55;80.96;102690.75;5040841;28;46389;-63
2024/02/01 11:43:16;;;;;;;;;15.50;12.00;;;;;13.53;81.43;102689.00;5040935;28;45411;-63
2024/02/01 11:45:41;;;;;;;;;19.00;14.00;;;;;13.50;81.09;102682.03;5040176;28;69437;-63
2024/02/01 11:48:14;;;;;;;;;21.50;15.25;;;;;13.46;81.25;102680.31;5041228;28;45374;-63
2024/02/01 11:50:40;;;;;;;;;16.25;11.25;;;;;13.45;81.47;102681.19;5046958;28;46370;-63
2024/02/01 11:53:08;;;;;;;;;17.25;15.25;;;;;13.50;81.70;102675.91;5039387;28;45379;-63
2024/02/01 11:55:34;;;;;;;;;33.25;29.50;;;;;13.53;81.84;102674.13;5056419;28;45315;-63
2024/02/01 11:58:00;;;;;;;;;14.75;11.50;;;;;13.55;81.24;102666.22;5040756;28;45255;-63